Portada
METAR-TAF:

METAR-TAF

Aeroports :

Base Naval de Rota

Rota, Espanya

latitud: 36-39N, longitud: 006-21W, altitud: 26 m

Observació

L'informe es va fer fa 50 minuts, a les 23:00 UTC
Vent 8 kt del Est/Sud-Est
Temperatura 21°C
Humitat 53%
Pressió 1013 hPa
Visibilitat 10 km o més

METAR: LERT 292300Z AUTO 12008KT 9999 NCD 21/11 Q1013

Hora: 01:50 (23:50 UTC)

Pronòstic

L'informe es va fer fa 50 minuts, a les 23:00 UTC
Pronòstic vàlid del 30 a les 00 UTC al 30 a les 09 UTC
Vent 9 kt del Sud-Est
Visibilitat 10 km o més
sense núvols per sota de 1500 mi sense presència de cumulonimbus.

TAF: LERT 292300Z 3000/3009 14009KT CAVOK

Observacions i pronòstics meteorològics de més de 4000 aeroports (METAR i TAF).

Les estacions disponibles són els punts grocs i vermells al mapa.

Posi el ratolí al punt desitjat per veure el nom de l'estació.

Feu clic per veure les observacions i els pronòstics meteorològics.

Per canviar el mapa: feu clic els botons verds amb una creu de color negre per apropar; al botó verd amb un guió per allunyar la imatge; o en les fletxes verdes per a mapes adjacents.


METAR-TAF: